sensor_id;sensor_type;location;lat;lon;timestamp;pressure;altitude;pressure_sealevel;temperature;humidity
20656;BME280;10487;53.320;8.672;2022-07-23T00:01:01;101628.44;;;22.74;42.71
20656;BME280;10487;53.320;8.672;2022-07-23T00:03:48;101625.88;;;22.72;42.60
20656;BME280;10487;53.320;8.672;2022-07-23T00:06:35;101620.59;;;22.71;42.69
20656;BME280;10487;53.320;8.672;2022-07-23T00:09:22;101612.66;;;22.69;42.53
20656;BME280;10487;53.320;8.672;2022-07-23T00:12:09;101612.66;;;22.69;42.73
20656;BME280;10487;53.320;8.672;2022-07-23T00:14:56;101599.59;;;22.65;42.64
20656;BME280;10487;53.320;8.672;2022-07-23T00:17:43;101604.25;;;22.63;42.49
20656;BME280;10487;53.320;8.672;2022-07-23T00:20:30;101608.91;;;22.61;42.51
20656;BME280;10487;53.320;8.672;2022-07-23T00:23:17;101609.06;;;22.59;42.53
20656;BME280;10487;53.320;8.672;2022-07-23T00:26:04;101605.66;;;22.57;42.59
20656;BME280;10487;53.320;8.672;2022-07-23T00:28:54;101599.53;;;22.55;42.87
20656;BME280;10487;53.320;8.672;2022-07-23T00:31:41;101585.31;;;22.53;42.49
20656;BME280;10487;53.320;8.672;2022-07-23T00:34:33;101588.16;;;22.51;42.48
20656;BME280;10487;53.320;8.672;2022-07-23T00:37:20;101596.41;;;22.50;42.81
20656;BME280;10487;53.320;8.672;2022-07-23T00:40:08;101593.69;;;22.50;42.76
20656;BME280;10487;53.320;8.672;2022-07-23T00:42:55;101601.91;;;22.48;42.71
20656;BME280;10487;53.320;8.672;2022-07-23T00:45:42;101596.50;;;22.48;42.81
20656;BME280;10487;53.320;8.672;2022-07-23T00:48:30;101597.53;;;22.47;42.73
20656;BME280;10487;53.320;8.672;2022-07-23T00:51:17;101602.91;;;22.47;42.69
20656;BME280;10487;53.320;8.672;2022-07-23T00:54:04;101610.28;;;22.45;42.76
20656;BME280;10487;53.320;8.672;2022-07-23T00:56:51;101613.13;;;22.44;42.57
20656;BME280;10487;53.320;8.672;2022-07-23T00:59:39;101612.25;;;22.43;42.88
20656;BME280;10487;53.320;8.672;2022-07-23T01:02:27;101615.97;;;22.42;42.80
20656;BME280;10487;53.320;8.672;2022-07-23T01:05:14;101598.22;;;22.40;42.73
20656;BME280;10487;53.320;8.672;2022-07-23T01:08:02;101590.22;;;22.38;42.87
20656;BME280;10487;53.320;8.672;2022-07-23T01:10:50;101580.44;;;22.37;42.90
20656;BME280;10487;53.320;8.672;2022-07-23T01:13:42;101587.69;;;22.37;43.00
20656;BME280;10487;53.320;8.672;2022-07-23T01:16:29;101586.97;;;22.35;42.75
20656;BME280;10487;53.320;8.672;2022-07-23T01:19:17;101594.31;;;22.33;42.84
20656;BME280;10487;53.320;8.672;2022-07-23T01:22:04;101581.97;;;22.30;42.93
20656;BME280;10487;53.320;8.672;2022-07-23T01:24:51;101579.41;;;22.29;42.88
20656;BME280;10487;53.320;8.672;2022-07-23T01:27:38;101573.31;;;22.27;42.84
20656;BME280;10487;53.320;8.672;2022-07-23T01:30:25;101570.75;;;22.25;43.09
20656;BME280;10487;53.320;8.672;2022-07-23T01:33:12;101573.56;;;22.24;42.81
20656;BME280;10487;53.320;8.672;2022-07-23T01:35:59;101569.31;;;22.21;43.02
20656;BME280;10487;53.320;8.672;2022-07-23T01:38:46;101572.16;;;22.20;43.01
20656;BME280;10487;53.320;8.672;2022-07-23T01:41:34;101561.47;;;22.18;42.90
20656;BME280;10487;53.320;8.672;2022-07-23T01:44:21;101571.44;;;22.18;43.04
20656;BME280;10487;53.320;8.672;2022-07-23T01:47:08;101574.13;;;22.18;43.21
20656;BME280;10487;53.320;8.672;2022-07-23T01:49:55;101576.09;;;22.16;43.27
20656;BME280;10487;53.320;8.672;2022-07-23T01:52:42;101562.59;;;22.16;43.37
20656;BME280;10487;53.320;8.672;2022-07-23T01:55:29;101563.63;;;22.15;43.23
20656;BME280;10487;53.320;8.672;2022-07-23T01:58:16;101562.03;;;22.12;43.38
20656;BME280;10487;53.320;8.672;2022-07-23T02:01:03;101553.25;;;22.10;43.11
20656;BME280;10487;53.320;8.672;2022-07-23T02:03:50;101558.91;;;22.07;43.02
20656;BME280;10487;53.320;8.672;2022-07-23T02:06:37;101553.63;;;22.06;43.10
20656;BME280;10487;53.320;8.672;2022-07-23T02:09:24;101546.53;;;22.05;43.20
20656;BME280;10487;53.320;8.672;2022-07-23T02:12:11;101547.50;;;22.04;43.18
20656;BME280;10487;53.320;8.672;2022-07-23T02:14:58;101537.75;;;22.03;43.25
20656;BME280;10487;53.320;8.672;2022-07-23T02:17:45;101547.66;;;22.02;43.19
20656;BME280;10487;53.320;8.672;2022-07-23T02:20:32;101537.84;;;22.01;43.27
20656;BME280;10487;53.320;8.672;2022-07-23T02:23:20;101533.59;;;21.99;43.58
20656;BME280;10487;53.320;8.672;2022-07-23T02:26:07;101527.34;;;21.98;43.41
20656;BME280;10487;53.320;8.672;2022-07-23T02:28:54;101529.22;;;21.98;43.56
20656;BME280;10487;53.320;8.672;2022-07-23T02:31:41;101522.25;;;21.95;43.50
20656;BME280;10487;53.320;8.672;2022-07-23T02:34:28;101529.47;;;21.95;43.38
20656;BME280;10487;53.320;8.672;2022-07-23T02:37:15;101524.22;;;21.93;43.30
20656;BME280;10487;53.320;8.672;2022-07-23T02:40:02;101528.75;;;21.92;43.34
20656;BME280;10487;53.320;8.672;2022-07-23T02:42:49;101520.66;;;21.92;43.46
20656;BME280;10487;53.320;8.672;2022-07-23T02:45:36;101516.25;;;21.91;43.39
20656;BME280;10487;53.320;8.672;2022-07-23T02:48:23;101512.69;;;21.91;43.58
20656;BME280;10487;53.320;8.672;2022-07-23T02:51:10;101523.63;;;21.89;43.36
20656;BME280;10487;53.320;8.672;2022-07-23T02:54:00;101522.91;;;21.87;43.36
20656;BME280;10487;53.320;8.672;2022-07-23T02:56:47;101523.78;;;21.88;43.59
20656;BME280;10487;53.320;8.672;2022-07-23T02:59:34;101529.28;;;21.86;43.61
20656;BME280;10487;53.320;8.672;2022-07-23T03:02:21;101525.72;;;21.86;43.61
20656;BME280;10487;53.320;8.672;2022-07-23T03:05:08;101511.41;;;21.85;43.48
20656;BME280;10487;53.320;8.672;2022-07-23T03:07:55;101519.50;;;21.85;43.68
20656;BME280;10487;53.320;8.672;2022-07-23T03:10:42;101528.53;;;21.84;43.68
20656;BME280;10487;53.320;8.672;2022-07-23T03:13:29;101519.75;;;21.82;43.53
20656;BME280;10487;53.320;8.672;2022-07-23T03:16:17;101519.75;;;21.82;43.61
20656;BME280;10487;53.320;8.672;2022-07-23T03:19:04;101519.75;;;21.82;43.73
20656;BME280;10487;53.320;8.672;2022-07-23T03:21:52;101522.44;;;21.82;43.60
20656;BME280;10487;53.320;8.672;2022-07-23T03:24:39;101518.03;;;21.81;43.56
20656;BME280;10487;53.320;8.672;2022-07-23T03:27:56;101527.09;;;21.80;43.67
20656;BME280;10487;53.320;8.672;2022-07-23T03:30:46;101508.25;;;21.80;43.82
20656;BME280;10487;53.320;8.672;2022-07-23T03:33:33;101523.66;;;21.78;43.62
20656;BME280;10487;53.320;8.672;2022-07-23T03:36:20;101515.72;;;21.77;43.76
20656;BME280;10487;53.320;8.672;2022-07-23T03:44:45;101515.03;;;21.75;43.76
20656;BME280;10487;53.320;8.672;2022-07-23T03:47:32;101508.91;;;21.73;43.58
20656;BME280;10487;53.320;8.672;2022-07-23T03:50:19;101510.75;;;21.72;43.80
20656;BME280;10487;53.320;8.672;2022-07-23T03:53:07;101523.38;;;21.72;43.81
20656;BME280;10487;53.320;8.672;2022-07-23T03:55:54;101526.22;;;21.70;43.63
20656;BME280;10487;53.320;8.672;2022-07-23T03:58:40;101521.78;;;21.69;43.67
20656;BME280;10487;53.320;8.672;2022-07-23T04:01:27;101523.63;;;21.69;43.77
20656;BME280;10487;53.320;8.672;2022-07-23T04:04:15;101523.63;;;21.69;43.67
20656;BME280;10487;53.320;8.672;2022-07-23T04:07:02;101527.31;;;21.68;43.85
20656;BME280;10487;53.320;8.672;2022-07-23T04:09:49;101527.44;;;21.66;43.78
20656;BME280;10487;53.320;8.672;2022-07-23T04:12:36;101541.06;;;21.65;43.79
20656;BME280;10487;53.320;8.672;2022-07-23T04:15:23;101538.47;;;21.63;43.73
20656;BME280;10487;53.320;8.672;2022-07-23T04:18:10;101537.66;;;21.63;43.81
20656;BME280;10487;53.320;8.672;2022-07-23T04:20:57;101533.22;;;21.62;43.82
20656;BME280;10487;53.320;8.672;2022-07-23T04:23:44;101533.09;;;21.63;43.86
20656;BME280;10487;53.320;8.672;2022-07-23T04:26:31;101535.78;;;21.63;43.92
20656;BME280;10487;53.320;8.672;2022-07-23T04:29:18;101535.06;;;21.61;43.91
20656;BME280;10487;53.320;8.672;2022-07-23T04:32:05;101531.53;;;21.61;43.88
20656;BME280;10487;53.320;8.672;2022-07-23T04:34:52;101535.06;;;21.61;43.97
20656;BME280;10487;53.320;8.672;2022-07-23T04:37:39;101537.75;;;21.61;43.97
20656;BME280;10487;53.320;8.672;2022-07-23T04:40:27;101536.78;;;21.62;44.07
20656;BME280;10487;53.320;8.672;2022-07-23T04:43:15;101533.09;;;21.63;44.00
20656;BME280;10487;53.320;8.672;2022-07-23T04:46:02;101535.94;;;21.62;43.89
20656;BME280;10487;53.320;8.672;2022-07-23T04:48:49;101536.66;;;21.64;44.04
20656;BME280;10487;53.320;8.672;2022-07-23T04:51:36;101538.38;;;21.65;43.93
20656;BME280;10487;53.320;8.672;2022-07-23T04:54:23;101550.00;;;21.65;43.98
20656;BME280;10487;53.320;8.672;2022-07-23T04:57:10;101547.31;;;21.65;44.02
20656;BME280;10487;53.320;8.672;2022-07-23T04:59:57;101541.06;;;21.65;44.15
20656;BME280;10487;53.320;8.672;2022-07-23T05:02:44;101544.63;;;21.65;44.26
20656;BME280;10487;53.320;8.672;2022-07-23T05:05:31;101546.44;;;21.65;44.19
20656;BME280;10487;53.320;8.672;2022-07-23T05:08:18;101549.84;;;21.67;44.14
20656;BME280;10487;53.320;8.672;2022-07-23T05:11:05;101552.41;;;21.68;44.03
20656;BME280;10487;53.320;8.672;2022-07-23T05:13:53;101551.44;;;21.69;44.17
20656;BME280;10487;53.320;8.672;2022-07-23T05:16:40;101549.44;;;21.71;44.22
20656;BME280;10487;53.320;8.672;2022-07-23T05:19:27;101558.25;;;21.73;44.18
20656;BME280;10487;53.320;8.672;2022-07-23T05:22:14;101550.06;;;21.75;44.23
20656;BME280;10487;53.320;8.672;2022-07-23T05:25:01;101551.63;;;21.77;44.27
20656;BME280;10487;53.320;8.672;2022-07-23T05:27:48;101549.78;;;21.78;44.00
20656;BME280;10487;53.320;8.672;2022-07-23T05:30:35;101551.63;;;21.77;44.19
20656;BME280;10487;53.320;8.672;2022-07-23T05:33:22;101547.81;;;21.80;44.10
20656;BME280;10487;53.320;8.672;2022-07-23T05:36:09;101553.91;;;21.82;44.26
20656;BME280;10487;53.320;8.672;2022-07-23T05:38:57;101551.22;;;21.82;44.33
20656;BME280;10487;53.320;8.672;2022-07-23T05:41:44;101557.59;;;21.81;44.28
20656;BME280;10487;53.320;8.672;2022-07-23T05:44:31;101558.59;;;21.80;44.36
20656;BME280;10487;53.320;8.672;2022-07-23T05:47:20;101566.53;;;21.81;44.20
20656;BME280;10487;53.320;8.672;2022-07-23T05:50:08;101564.53;;;21.83;44.03
20656;BME280;10487;53.320;8.672;2022-07-23T05:52:55;101565.41;;;21.84;44.25
20656;BME280;10487;53.320;8.672;2022-07-23T05:55:42;101567.16;;;21.85;44.05
20656;BME280;10487;53.320;8.672;2022-07-23T05:58:29;101569.72;;;21.86;44.26
20656;BME280;10487;53.320;8.672;2022-07-23T06:01:16;101571.16;;;21.90;44.26
20656;BME280;10487;53.320;8.672;2022-07-23T06:04:04;101579.56;;;21.97;44.37
20656;BME280;10487;53.320;8.672;2022-07-23T06:06:51;101572.03;;;22.01;44.43
20656;BME280;10487;53.320;8.672;2022-07-23T06:09:38;101562.72;;;22.05;44.42
20656;BME280;10487;53.320;8.672;2022-07-23T06:12:25;101572.13;;;22.10;44.40
20656;BME280;10487;53.320;8.672;2022-07-23T06:15:12;101568.00;;;22.16;44.56
20656;BME280;10487;53.320;8.672;2022-07-23T06:17:59;101568.31;;;22.22;44.56
20656;BME280;10487;53.320;8.672;2022-07-23T06:20:46;101570.75;;;22.25;44.46
20656;BME280;10487;53.320;8.672;2022-07-23T06:23:37;101578.44;;;22.30;44.59
20656;BME280;10487;53.320;8.672;2022-07-23T06:26:24;101586.22;;;22.33;44.45
20656;BME280;10487;53.320;8.672;2022-07-23T06:29:11;101585.84;;;22.37;44.27
20656;BME280;10487;53.320;8.672;2022-07-23T06:31:58;101586.13;;;22.44;44.24
20656;BME280;10487;53.320;8.672;2022-07-23T06:34:45;101596.66;;;22.47;44.27
20656;BME280;10487;53.320;8.672;2022-07-23T06:37:34;101598.94;;;22.51;44.42
20656;BME280;10487;53.320;8.672;2022-07-23T06:40:21;101597.66;;;22.55;44.37
20656;BME280;10487;53.320;8.672;2022-07-23T06:43:08;101603.66;;;22.59;44.32
20656;BME280;10487;53.320;8.672;2022-07-23T06:45:55;101600.56;;;22.64;44.52
20656;BME280;10487;53.320;8.672;2022-07-23T06:48:42;101607.25;;;22.69;44.38
20656;BME280;10487;53.320;8.672;2022-07-23T06:51:29;101605.88;;;22.75;44.48
20656;BME280;10487;53.320;8.672;2022-07-23T06:54:16;101619.06;;;22.78;44.42
20656;BME280;10487;53.320;8.672;2022-07-23T06:57:04;101609.97;;;22.79;44.01
20656;BME280;10487;53.320;8.672;2022-07-23T06:59:51;101614.97;;;22.83;44.17
20656;BME280;10487;53.320;8.672;2022-07-23T07:02:43;101612.00;;;22.86;44.10
20656;BME280;10487;53.320;8.672;2022-07-23T07:05:30;101610.00;;;22.88;44.47
20656;BME280;10487;53.320;8.672;2022-07-23T07:08:17;101613.41;;;22.90;44.08
20656;BME280;10487;53.320;8.672;2022-07-23T07:11:04;101609.44;;;22.94;44.24
20656;BME280;10487;53.320;8.672;2022-07-23T07:13:51;101610.00;;;22.98;44.42
20656;BME280;10487;53.320;8.672;2022-07-23T07:16:38;101611.72;;;22.99;44.01
20656;BME280;10487;53.320;8.672;2022-07-23T07:19:25;101610.72;;;23.00;44.35
20656;BME280;10487;53.320;8.672;2022-07-23T07:22:12;101617.84;;;23.01;44.32
20656;BME280;10487;53.320;8.672;2022-07-23T07:24:59;101611.56;;;23.00;44.26
20656;BME280;10487;53.320;8.672;2022-07-23T07:27:46;101614.97;;;23.02;44.09
20656;BME280;10487;53.320;8.672;2022-07-23T07:30:33;101624.53;;;23.06;44.02
20656;BME280;10487;53.320;8.672;2022-07-23T07:33:20;101625.94;;;23.10;44.36
20656;BME280;10487;53.320;8.672;2022-07-23T07:36:08;101615.84;;;23.12;43.96
20656;BME280;10487;53.320;8.672;2022-07-23T07:38:55;101613.56;;;23.17;44.30
20656;BME280;10487;53.320;8.672;2022-07-23T07:41:42;101617.28;;;23.26;43.99
20656;BME280;10487;53.320;8.672;2022-07-23T07:44:29;101618.69;;;23.30;44.37
20656;BME280;10487;53.320;8.672;2022-07-23T07:47:16;101617.84;;;23.30;44.36
20656;BME280;10487;53.320;8.672;2022-07-23T07:50:03;101619.56;;;23.31;44.32
20656;BME280;10487;53.320;8.672;2022-07-23T07:52:52;101623.97;;;23.32;44.01
20656;BME280;10487;53.320;8.672;2022-07-23T07:55:39;101616.69;;;23.32;44.27
20656;BME280;10487;53.320;8.672;2022-07-23T07:58:26;101627.22;;;23.35;44.08
20656;BME280;10487;53.320;8.672;2022-07-23T08:01:14;101619.88;;;23.37;44.21
20656;BME280;10487;53.320;8.672;2022-07-23T08:04:01;101622.16;;;23.42;44.05
20656;BME280;10487;53.320;8.672;2022-07-23T08:06:49;101619.16;;;23.45;44.17
20656;BME280;10487;53.320;8.672;2022-07-23T08:09:36;101624.28;;;23.48;43.92
20656;BME280;10487;53.320;8.672;2022-07-23T08:12:22;101624.00;;;23.51;44.25
20656;BME280;10487;53.320;8.672;2022-07-23T08:15:10;101630.09;;;23.53;43.82
20656;BME280;10487;53.320;8.672;2022-07-23T08:18:00;101622.69;;;23.55;44.18
20656;BME280;10487;53.320;8.672;2022-07-23T08:20:47;101620.00;;;23.55;44.23
20656;BME280;10487;53.320;8.672;2022-07-23T08:23:34;101632.25;;;23.59;43.89
20656;BME280;10487;53.320;8.672;2022-07-23T08:26:21;101630.25;;;23.61;44.19
20656;BME280;10487;53.320;8.672;2022-07-23T08:29:08;101628.09;;;23.64;44.09
20656;BME280;10487;53.320;8.672;2022-07-23T08:31:55;101630.50;;;23.67;43.77
20656;BME280;10487;53.320;8.672;2022-07-23T08:34:42;101634.50;;;23.73;43.83
20656;BME280;10487;53.320;8.672;2022-07-23T08:37:30;101637.34;;;23.81;44.16
20656;BME280;10487;53.320;8.672;2022-07-23T08:40:17;101642.16;;;23.87;43.77
20656;BME280;10487;53.320;8.672;2022-07-23T08:43:07;101639.84;;;23.92;44.14
20656;BME280;10487;53.320;8.672;2022-07-23T08:45:56;101642.28;;;23.95;43.82
20656;BME280;10487;53.320;8.672;2022-07-23T08:48:47;101641.13;;;23.98;43.89
20656;BME280;10487;53.320;8.672;2022-07-23T08:51:34;101638.28;;;23.99;43.66
20656;BME280;10487;53.320;8.672;2022-07-23T08:54:22;101647.94;;;24.02;43.71
20656;BME280;10487;53.320;8.672;2022-07-23T08:57:08;101642.41;;;24.03;43.68
20656;BME280;10487;53.320;8.672;2022-07-23T08:59:56;101641.25;;;24.06;43.61
20656;BME280;10487;53.320;8.672;2022-07-23T09:02:44;101643.56;;;24.10;43.75
20656;BME280;10487;53.320;8.672;2022-07-23T09:05:32;101645.97;;;24.13;44.08
20656;BME280;10487;53.320;8.672;2022-07-23T09:08:23;101641.84;;;24.19;43.82
20656;BME280;10487;53.320;8.672;2022-07-23T09:11:13;101640.38;;;24.24;43.91
20656;BME280;10487;53.320;8.672;2022-07-23T09:14:02;101637.38;;;24.27;43.98
20656;BME280;10487;53.320;8.672;2022-07-23T09:16:50;101642.34;;;24.32;43.61
20656;BME280;10487;53.320;8.672;2022-07-23T09:19:38;101636.47;;;24.36;43.55
20656;BME280;10487;53.320;8.672;2022-07-23T09:22:26;101638.75;;;24.41;43.66
20656;BME280;10487;53.320;8.672;2022-07-23T09:25:17;101642.00;;;24.44;43.66
20656;BME280;10487;53.320;8.672;2022-07-23T09:28:04;101637.84;;;24.50;43.45
20656;BME280;10487;53.320;8.672;2022-07-23T09:30:53;101637.41;;;24.55;43.70
20656;BME280;10487;53.320;8.672;2022-07-23T09:33:41;101638.78;;;24.59;43.71
20656;BME280;10487;53.320;8.672;2022-07-23T09:36:28;101638.50;;;24.62;43.67
20656;BME280;10487;53.320;8.672;2022-07-23T09:39:26;101651.75;;;24.65;43.58
20656;BME280;10487;53.320;8.672;2022-07-23T09:42:22;101645.19;;;24.67;43.46
20656;BME280;10487;53.320;8.672;2022-07-23T09:45:10;101652.59;;;24.65;43.63
20656;BME280;10487;53.320;8.672;2022-07-23T09:48:12;101663.56;;;24.64;43.40
20656;BME280;10487;53.320;8.672;2022-07-23T09:51:02;101658.59;;;24.59;43.22
20656;BME280;10487;53.320;8.672;2022-07-23T09:53:51;101663.78;;;24.53;43.10
20656;BME280;10487;53.320;8.672;2022-07-23T09:56:39;101671.47;;;24.48;43.29
20656;BME280;10487;53.320;8.672;2022-07-23T09:59:28;101675.50;;;24.43;43.09
20656;BME280;10487;53.320;8.672;2022-07-23T10:02:16;101670.38;;;24.40;43.12
20656;BME280;10487;53.320;8.672;2022-07-23T10:05:04;101675.78;;;24.40;43.42
20656;BME280;10487;53.320;8.672;2022-07-23T10:07:52;101675.63;;;24.42;43.03
20656;BME280;10487;53.320;8.672;2022-07-23T10:10:40;101677.19;;;24.44;43.12
20656;BME280;10487;53.320;8.672;2022-07-23T10:13:27;101675.06;;;24.48;43.19
20656;BME280;10487;53.320;8.672;2022-07-23T10:16:33;101680.88;;;24.53;43.18
20656;BME280;10487;53.320;8.672;2022-07-23T10:19:20;101682.44;;;24.56;43.40
20656;BME280;10487;53.320;8.672;2022-07-23T10:22:12;101679.28;;;24.60;43.15
20656;BME280;10487;53.320;8.672;2022-07-23T10:25:03;101687.94;;;24.64;43.16
20656;BME280;10487;53.320;8.672;2022-07-23T10:37:55;101688.03;;;24.72;43.14
20656;BME280;10487;53.320;8.672;2022-07-23T10:41:09;101678.34;;;24.79;43.36
20656;BME280;10487;53.320;8.672;2022-07-23T10:44:16;101681.84;;;24.89;43.16
20656;BME280;10487;53.320;8.672;2022-07-23T10:47:04;101677.91;;;25.01;43.20
20656;BME280;10487;53.320;8.672;2022-07-23T10:53:11;101697.00;;;25.27;43.15
20656;BME280;10487;53.320;8.672;2022-07-23T10:56:00;101700.28;;;25.30;43.17
20656;BME280;10487;53.320;8.672;2022-07-23T10:58:49;101707.41;;;25.31;42.86
20656;BME280;10487;53.320;8.672;2022-07-23T11:01:38;101702.66;;;25.33;42.98
20656;BME280;10487;53.320;8.672;2022-07-23T11:04:51;101707.94;;;25.35;42.69
20656;BME280;10487;53.320;8.672;2022-07-23T11:10:55;101689.28;;;25.32;42.68
20656;BME280;10487;53.320;8.672;2022-07-23T11:13:46;101687.19;;;25.43;42.81
20656;BME280;10487;53.320;8.672;2022-07-23T11:16:46;101684.03;;;25.65;42.90
20656;BME280;10487;53.320;8.672;2022-07-23T11:22:58;101685.47;;;25.95;42.85
20656;BME280;10487;53.320;8.672;2022-07-23T11:25:46;101681.28;;;26.01;42.79
20656;BME280;10487;53.320;8.672;2022-07-23T11:28:33;101682.34;;;26.08;42.74
20656;BME280;10487;53.320;8.672;2022-07-23T11:31:20;101685.31;;;26.14;42.56
20656;BME280;10487;53.320;8.672;2022-07-23T11:37:33;101686.88;;;26.17;42.50
20656;BME280;10487;53.320;8.672;2022-07-23T11:40:24;101690.06;;;26.12;42.15
20656;BME280;10487;53.320;8.672;2022-07-23T11:43:13;101691.91;;;26.12;42.19
20656;BME280;10487;53.320;8.672;2022-07-23T11:46:00;101691.19;;;26.10;42.31
20656;BME280;10487;53.320;8.672;2022-07-23T11:49:01;101691.91;;;26.12;42.25
20656;BME280;10487;53.320;8.672;2022-07-23T11:52:22;101684.91;;;26.09;42.20
20656;BME280;10487;53.320;8.672;2022-07-23T11:55:10;101702.19;;;26.08;42.05
20656;BME280;10487;53.320;8.672;2022-07-23T11:57:58;101698.63;;;26.08;42.28
20656;BME280;10487;53.320;8.672;2022-07-23T12:00:46;101694.63;;;26.12;42.02
20656;BME280;10487;53.320;8.672;2022-07-23T12:03:33;101696.00;;;26.16;42.27
20656;BME280;10487;53.320;8.672;2022-07-23T12:06:20;101700.94;;;26.20;42.13
20656;BME280;10487;53.320;8.672;2022-07-23T12:09:07;101706.75;;;26.25;42.15
20656;BME280;10487;53.320;8.672;2022-07-23T12:12:01;101709.53;;;26.33;42.00
20656;BME280;10487;53.320;8.672;2022-07-23T12:14:53;101699.34;;;26.35;41.86
20656;BME280;10487;53.320;8.672;2022-07-23T12:17:43;101701.75;;;26.39;41.87
20656;BME280;10487;53.320;8.672;2022-07-23T12:20:39;101702.63;;;26.39;41.89
20656;BME280;10487;53.320;8.672;2022-07-23T12:23:27;101701.94;;;26.45;41.95
20656;BME280;10487;53.320;8.672;2022-07-23T12:26:14;101696.41;;;26.55;41.80
20656;BME280;10487;53.320;8.672;2022-07-23T12:29:01;101701.75;;;26.64;41.94
20656;BME280;10487;53.320;8.672;2022-07-23T12:31:48;101701.06;;;26.70;41.74
20656;BME280;10487;53.320;8.672;2022-07-23T12:34:35;101703.19;;;26.76;41.67
20656;BME280;10487;53.320;8.672;2022-07-23T12:37:36;101707.25;;;26.80;41.58
20656;BME280;10487;53.320;8.672;2022-07-23T12:40:30;101707.25;;;26.80;41.58
20656;BME280;10487;53.320;8.672;2022-07-23T12:43:21;101712.69;;;26.80;41.43
20656;BME280;10487;53.320;8.672;2022-07-23T12:46:12;101705.53;;;26.79;41.49
20656;BME280;10487;53.320;8.672;2022-07-23T12:49:01;101712.69;;;26.80;41.46
20656;BME280;10487;53.320;8.672;2022-07-23T12:51:49;101711.84;;;26.80;41.52
20656;BME280;10487;53.320;8.672;2022-07-23T12:54:37;101718.31;;;26.79;41.37
20656;BME280;10487;53.320;8.672;2022-07-23T12:57:45;101716.41;;;26.79;41.37
20656;BME280;10487;53.320;8.672;2022-07-23T13:03:40;101715.31;;;26.98;41.35
20656;BME280;10487;53.320;8.672;2022-07-23T13:06:32;101709.75;;;27.08;41.37
20656;BME280;10487;53.320;8.672;2022-07-23T13:09:31;101711.63;;;27.15;41.36
20656;BME280;10487;53.320;8.672;2022-07-23T13:12:23;101716.41;;;27.21;41.33
20656;BME280;10487;53.320;8.672;2022-07-23T13:15:10;101716.28;;;27.31;41.33
20656;BME280;10487;53.320;8.672;2022-07-23T13:17:57;101714.44;;;27.39;41.31
20656;BME280;10487;53.320;8.672;2022-07-23T13:20:45;101715.97;;;27.42;41.35
20656;BME280;10487;53.320;8.672;2022-07-23T13:23:33;101717.50;;;27.44;41.20
20656;BME280;10487;53.320;8.672;2022-07-23T13:26:20;101720.44;;;27.51;41.19
20656;BME280;10487;53.320;8.672;2022-07-23T13:29:08;101718.06;;;27.56;41.10
20656;BME280;10487;53.320;8.672;2022-07-23T13:31:57;101720.41;;;27.59;41.15
20656;BME280;10487;53.320;8.672;2022-07-23T13:34:44;101728.44;;;27.60;41.03
20656;BME280;10487;53.320;8.672;2022-07-23T13:37:31;101727.56;;;27.60;40.74
20656;BME280;10487;53.320;8.672;2022-07-23T13:40:18;101725.50;;;27.54;40.65
20656;BME280;10487;53.320;8.672;2022-07-23T13:43:06;101730.59;;;27.49;40.96
20656;BME280;10487;53.320;8.672;2022-07-23T13:45:54;101733.50;;;27.47;40.43
20656;BME280;10487;53.320;8.672;2022-07-23T13:48:41;101725.16;;;27.49;40.53
20656;BME280;10487;53.320;8.672;2022-07-23T13:51:28;101725.00;;;27.50;40.77
20656;BME280;10487;53.320;8.672;2022-07-23T13:54:15;101715.66;;;27.53;40.87
20656;BME280;10487;53.320;8.672;2022-07-23T13:57:03;101717.34;;;27.54;40.53
20656;BME280;10487;53.320;8.672;2022-07-23T13:59:51;101725.50;;;27.54;40.61
20656;BME280;10487;53.320;8.672;2022-07-23T14:02:40;101729.25;;;27.53;40.45
20656;BME280;10487;53.320;8.672;2022-07-23T14:05:29;101729.41;;;27.51;40.54
20656;BME280;10487;53.320;8.672;2022-07-23T14:08:17;101736.22;;;27.47;40.51
20656;BME280;10487;53.320;8.672;2022-07-23T14:11:08;101730.97;;;27.46;40.32
20656;BME280;10487;53.320;8.672;2022-07-23T14:13:54;101740.97;;;27.45;40.62
20656;BME280;10487;53.320;8.672;2022-07-23T14:16:42;101740.97;;;27.45;40.50
20656;BME280;10487;53.320;8.672;2022-07-23T14:19:29;101730.97;;;27.46;40.51
20656;BME280;10487;53.320;8.672;2022-07-23T14:22:17;101746.59;;;27.52;40.60
20656;BME280;10487;53.320;8.672;2022-07-23T14:25:08;101737.25;;;27.54;40.47
20656;BME280;10487;53.320;8.672;2022-07-23T14:27:56;101737.91;;;27.56;40.44
20656;BME280;10487;53.320;8.672;2022-07-23T14:30:43;101742.88;;;27.61;40.12
20656;BME280;10487;53.320;8.672;2022-07-23T14:33:30;101746.78;;;27.67;40.55
20656;BME280;10487;53.320;8.672;2022-07-23T14:36:18;101741.34;;;27.75;40.33
20656;BME280;10487;53.320;8.672;2022-07-23T14:39:05;101743.22;;;27.82;40.36
20656;BME280;10487;53.320;8.672;2022-07-23T14:41:56;101744.44;;;27.88;40.55
20656;BME280;10487;53.320;8.672;2022-07-23T14:44:43;101749.53;;;27.91;40.45
20656;BME280;10487;53.320;8.672;2022-07-23T14:47:30;101745.63;;;27.93;40.16
20656;BME280;10487;53.320;8.672;2022-07-23T14:50:17;101748.84;;;27.97;40.17
20656;BME280;10487;53.320;8.672;2022-07-23T14:53:05;101760.28;;;28.00;40.35
20656;BME280;10487;53.320;8.672;2022-07-23T14:55:52;101754.50;;;28.03;40.12
20656;BME280;10487;53.320;8.672;2022-07-23T14:58:41;101751.59;;;28.05;40.27
20656;BME280;10487;53.320;8.672;2022-07-23T15:01:28;101735.09;;;28.06;40.06
20656;BME280;10487;53.320;8.672;2022-07-23T15:04:16;101746.84;;;28.07;39.84
20656;BME280;10487;53.320;8.672;2022-07-23T15:07:22;101753.13;;;28.07;39.85
20656;BME280;10487;53.320;8.672;2022-07-23T15:10:13;101754.16;;;28.06;40.12
20656;BME280;10487;53.320;8.672;2022-07-23T15:13:00;101748.03;;;28.04;40.01